Weather History for Wayne, NE

Change the Weather History Date:

Friday, November 2, 2012

  Actual Average (KOFK) Record (KOFK)
Temperature  
Mean Temperature 38 °F 44 °F  
Max Temperature 47 °F 55 °F 83 °F (2005)
Min Temperature 29 °F 32 °F 5 °F (1991)
Degree Days  
Heating Degree Days 27 21  
Month to date heating degree days 42  
Since 1 July heating degree days 627  
Cooling Degree Days 0 0  
Month to date cooling degree days 0  
Year to date cooling degree days 915  
Moisture  
Dew Point 29 °F    
Average Humidity 67    
Maximum Humidity 100    
Minimum Humidity 44    
Precipitation  
Precipitation 0.00 in 0.05 in 1.22 in (1901)
Month to date precipitation 0.10  
Year to date precipitation 25.39  
Snow  
Snow 0.00 in 0.10 in - ()
Month to date snowfall 0.2  
Since 1 July snowfall 1.0  
Snow Depth -    
Sea Level Pressure  
Sea Level Pressure 30.01 in    
Wind  
Wind Speed 6 mph (ENE)    
Max Wind Speed 12 mph    
Max Gust Speed -    
Visibility 10 miles    
Events      
T = Trace of Precipitation, MM = Missing Value Source: NWS Daily Summary

Daily Weather History Graph

Daily Weather History Graph

Search for Another Location

Airport:

Trip Planner

Search our weather history database for the weather conditions in past years. The results will help you decide how hot, cold, wet, or windy it might be!

Date:

Astronomy

Nov. 02, 2012 Rise Set
Actual Time 8:02 AM CDT 6:19 PM CDT
Civil Twilight 7:33 AM CDT 6:48 PM CDT
Nautical Twilight 7:00 AM CDT 7:21 PM CDT
Astronomical Twilight 6:27 AM CDT 7:54 PM CDT
Moon 9:05 PM CDT (11/2) 11:26 AM CDT (11/2)
Length of Visible Light 11h 15m
Length of Day
10h 16m
Waning Gibbous, 87% of the Moon is Illuminated
Nov 2
Waning Gibbous
Nov 6
Last Quarter
Nov 13
New
Nov 20
First Quarter
Nov 28
Full

Hourly Weather History & Observations

Time (CDT) Temp. Windchill Dew Point Humidity Pressure Visibility Wind Dir Wind Speed Gust Speed Precip Events Conditions
12:15 AM 29.5 °F 24.5 °F 29.5 °F 100% 30.01 in 7.0 mi East 4.6 mph - N/A   Clear
12:35 AM 33.6 °F 26.8 °F 30.7 °F 89% 30.01 in 10.0 mi ENE 8.1 mph - N/A   Clear
12:55 AM 34.2 °F 29.0 °F 29.3 °F 82% 30.01 in 10.0 mi East 5.8 mph - N/A   Clear
1:15 AM 33.8 °F 28.6 °F 28.6 °F 81% 30.00 in 10.0 mi East 5.8 mph - N/A   Clear
1:35 AM 33.8 °F 28.6 °F 28.4 °F 81% 30.00 in 10.0 mi East 5.8 mph - N/A   Clear
1:55 AM 33.1 °F 27.7 °F 28.4 °F 83% 30.00 in 10.0 mi ENE 5.8 mph - N/A   Clear
2:15 AM 32.9 °F 27.5 °F 28.8 °F 85% 30.00 in 10.0 mi East 5.8 mph - N/A   Clear
2:35 AM 34.0 °F 28.0 °F 28.6 °F 81% 30.00 in 10.0 mi ENE 6.9 mph - N/A   Clear
2:55 AM 34.3 °F 29.2 °F 28.4 °F 79% 29.98 in 10.0 mi East 5.8 mph - N/A   Clear
3:15 AM 34.7 °F 27.5 °F 28.2 °F 77% 29.98 in 10.0 mi East 9.2 mph - N/A   Clear
3:35 AM 34.2 °F 29.0 °F 28.0 °F 78% 29.98 in 10.0 mi East 5.8 mph - N/A   Clear
3:55 AM 34.0 °F 29.8 °F 28.2 °F 79% 29.98 in 10.0 mi East 4.6 mph - N/A   Clear
4:15 AM 33.1 °F 28.7 °F 28.2 °F 82% 29.98 in 10.0 mi ESE 4.6 mph - N/A   Clear
4:35 AM 33.3 °F 28.9 °F 28.4 °F 82% 29.97 in 10.0 mi ESE 4.6 mph - N/A   Clear
4:55 AM 33.8 °F 29.6 °F 28.4 °F 81% 29.96 in 10.0 mi ESE 4.6 mph - N/A   Clear
5:15 AM 33.8 °F 29.6 °F 28.4 °F 81% 29.96 in 10.0 mi ESE 4.6 mph - N/A   Clear
5:35 AM 34.2 °F 28.2 °F 28.4 °F 79% 29.96 in 10.0 mi ESE 6.9 mph - N/A   Clear
5:55 AM 34.3 °F 28.4 °F 28.4 °F 79% 29.97 in 10.0 mi East 6.9 mph - N/A   Clear
6:15 AM 34.2 °F 30.0 °F 28.2 °F 79% 29.97 in 10.0 mi East 4.6 mph - N/A   Clear
6:35 AM 34.0 °F 28.0 °F 28.4 °F 80% 29.97 in 10.0 mi East 6.9 mph - N/A   Clear
6:55 AM 34.2 °F 27.5 °F 28.4 °F 79% 29.96 in 10.0 mi ESE 8.1 mph - N/A   Clear
7:15 AM 34.5 °F 27.9 °F 28.4 °F 78% 29.96 in 10.0 mi ESE 8.1 mph - N/A   Clear
7:35 AM 34.3 °F 29.2 °F 28.6 °F 79% 29.96 in 10.0 mi ESE 5.8 mph - N/A   Clear
7:55 AM 34.7 °F 27.5 °F 28.4 °F 78% 29.95 in 10.0 mi SE 9.2 mph - N/A   Clear
8:15 AM 34.7 °F 29.6 °F 28.6 °F 78% 29.96 in 10.0 mi SE 5.8 mph - N/A   Clear
8:35 AM 35.1 °F 31.0 °F 28.9 °F 78% 29.98 in 10.0 mi SE 4.6 mph - N/A   Clear
8:55 AM 35.6 °F 31.7 °F 29.3 °F 78% 29.98 in 10.0 mi ESE 4.6 mph - N/A   Clear
9:15 AM 36.5 °F 32.7 °F 29.7 °F 76% 30.00 in 10.0 mi East 4.6 mph - N/A   Clear
9:35 AM 36.7 °F 32.9 °F 29.7 °F 76% 30.01 in 10.0 mi ESE 4.6 mph - N/A   Clear
9:55 AM 37.6 °F 31.6 °F 29.7 °F 73% 30.00 in 10.0 mi ESE 8.1 mph - N/A   Clear
10:15 AM 38.3 °F 31.9 °F 29.8 °F 72% 30.00 in 10.0 mi SE 9.2 mph - N/A   Clear
10:35 AM 39.0 °F 32.8 °F 29.7 °F 69% 30.01 in 10.0 mi ESE 9.2 mph - N/A   Clear
10:55 AM 39.9 °F 33.9 °F 29.5 °F 66% 30.01 in 10.0 mi SE 9.2 mph - N/A   Clear
11:15 AM 41.2 °F 35.5 °F 29.7 °F 64% 30.01 in 10.0 mi ESE 9.2 mph - N/A   Clear
11:35 AM 41.9 °F 35.9 °F 29.3 °F 61% 30.00 in 10.0 mi ESE 10.4 mph - N/A   Clear
11:55 AM 42.8 °F 36.6 °F 29.1 °F 58% 30.01 in 10.0 mi ESE 11.5 mph - N/A   Clear
12:15 PM 43.7 °F 38.1 °F 29.5 °F 57% 30.01 in 10.0 mi ESE 10.4 mph - N/A   Clear
12:35 PM 44.2 °F 38.8 °F 28.9 °F 55% 30.00 in 10.0 mi ESE 10.4 mph - N/A   Clear
12:55 PM 46.2 °F 42.2 °F 28.9 °F 51% 30.00 in 10.0 mi SE 8.1 mph - N/A   Clear
1:15 PM 45.9 °F 42.9 °F 28.4 °F 51% 30.00 in 10.0 mi East 5.8 mph - N/A   Clear
1:35 PM 46.0 °F 42.5 °F 28.0 °F 50% 30.00 in 10.0 mi ESE 6.9 mph - N/A   Clear
1:55 PM 47.5 °F - 28.4 °F 48% 30.00 in 10.0 mi East 5.8 mph - N/A   Clear
2:15 PM 46.6 °F - 27.5 °F 47% 29.99 in 10.0 mi ENE 3.5 mph - N/A   Clear
2:35 PM 46.8 °F - 27.5 °F 47% 29.98 in 10.0 mi ENE 3.5 mph - N/A   Clear
2:55 PM 47.3 °F - 27.3 °F 46% 29.98 in 10.0 mi East 5.8 mph - N/A   Clear
3:15 PM 47.5 °F - 27.1 °F 45% 30.00 in 10.0 mi NNE 5.8 mph - N/A   Clear
3:35 PM 47.7 °F - 26.4 °F 44% 29.99 in 10.0 mi Calm Calm - N/A   Clear
3:55 PM 47.7 °F - 27.7 °F 46% 29.98 in 10.0 mi NNE 9.2 mph - N/A   Clear
4:15 PM 46.6 °F - 27.9 °F 48% 30.00 in 10.0 mi NNE 9.2 mph - N/A   Clear
4:35 PM 46.2 °F 41.2 °F 28.0 °F 49% 30.01 in 10.0 mi NNE 10.4 mph - N/A   Clear
4:55 PM 45.5 °F 40.8 °F 28.0 °F 51% 30.01 in 10.0 mi NNE 9.2 mph - N/A   Clear
5:15 PM 45.5 °F 40.8 °F 27.7 °F 50% 30.01 in 10.0 mi NE 9.2 mph - N/A   Clear
5:35 PM 44.6 °F 40.2 °F 27.5 °F 51% 30.02 in 10.0 mi NNE 8.1 mph - N/A   Clear
5:55 PM 43.9 °F 40.5 °F 27.9 °F 53% 30.03 in 10.0 mi North 5.8 mph - N/A   Clear
6:15 PM 42.4 °F 39.6 °F 27.5 °F 56% 30.03 in 10.0 mi North 4.6 mph - N/A   Clear
6:35 PM 38.8 °F 35.4 °F 26.4 °F 61% 30.04 in 10.0 mi North 4.6 mph - N/A   Clear
6:55 PM 39.2 °F 35.0 °F 27.0 °F 62% 30.05 in 10.0 mi NNW 5.8 mph - N/A   Scattered Clouds
7:15 PM 37.9 °F - 26.6 °F 64% 30.06 in 10.0 mi Calm Calm - N/A   Overcast
7:35 PM 38.7 °F - 26.8 °F 62% 30.07 in 10.0 mi Calm Calm - N/A   Overcast
7:55 PM 40.1 °F 38.0 °F 28.8 °F 64% 30.07 in 10.0 mi NNW 3.5 mph - N/A   Overcast
8:15 PM 41.9 °F 38.2 °F 28.8 °F 60% 30.08 in 10.0 mi North 5.8 mph - N/A   Overcast
8:35 PM 42.3 °F 38.6 °F 28.8 °F 59% 30.08 in 10.0 mi North 5.8 mph - N/A   Overcast
8:55 PM 42.1 °F 38.4 °F 29.3 °F 61% 30.08 in 10.0 mi NNW 5.8 mph - N/A   Overcast
9:15 PM 42.1 °F 39.2 °F 29.3 °F 61% 30.08 in 10.0 mi NNW 4.6 mph - N/A   Overcast
9:35 PM 42.1 °F 38.4 °F 29.1 °F 60% 30.08 in 10.0 mi NNW 5.8 mph - N/A   Overcast
9:55 PM 41.9 °F 37.5 °F 29.3 °F 61% 30.09 in 10.0 mi NNW 6.9 mph - N/A   Overcast
10:15 PM 41.5 °F 37.8 °F 29.3 °F 62% 30.10 in 10.0 mi NNW 5.8 mph - N/A   Overcast
10:35 PM 40.8 °F 36.2 °F 29.3 °F 64% 30.10 in 10.0 mi North 6.9 mph - N/A   Overcast
10:55 PM 39.4 °F 37.2 °F 29.3 °F 67% 30.10 in 10.0 mi North 3.5 mph - N/A   Mostly Cloudy
11:15 PM 37.6 °F - 28.9 °F 71% 30.11 in 10.0 mi Calm Calm - N/A   Scattered Clouds
11:35 PM 35.8 °F - 28.2 °F 74% 30.11 in 10.0 mi Calm Calm - N/A   Clear
11:55 PM 33.6 °F - 28.4 °F 81% 30.12 in 10.0 mi Calm Calm - N/A   Clear